createdAt,value
2022-09-16T00:00:51.137Z,96539.72
2022-09-16T00:03:19.225Z,96544.44
2022-09-16T00:05:49.032Z,96536.03
2022-09-16T00:08:16.989Z,96530.06
2022-09-16T00:10:44.494Z,96525.78
2022-09-16T00:13:13.030Z,96532.94
2022-09-16T00:15:49.421Z,96516.19
2022-09-16T00:18:16.778Z,96529.19
2022-09-16T00:20:49.726Z,96518.59
2022-09-16T00:23:17.850Z,96525.56
2022-09-16T00:25:44.903Z,96527.19
2022-09-16T00:28:12.155Z,96519.41
2022-09-16T00:30:39.419Z,96527.94
2022-09-16T00:33:06.620Z,96527.94
2022-09-16T00:35:33.873Z,96528.75
2022-09-16T00:38:00.870Z,96533.53
2022-09-16T00:40:28.636Z,96528.81
2022-09-16T00:42:55.583Z,96533.63
2022-09-16T00:45:27.976Z,96529.09
2022-09-16T00:48:01.900Z,96540.97
2022-09-16T00:50:41.859Z,96534.78
2022-09-16T00:53:13.861Z,96534.03
2022-09-16T00:55:43.461Z,96546.97
2022-09-16T00:58:22.705Z,96547.75
2022-09-16T01:00:51.123Z,96551.84
2022-09-16T01:03:19.762Z,96543.50
2022-09-16T01:05:48.038Z,96546.16
2022-09-16T01:08:15.724Z,96539.59
2022-09-16T01:10:43.923Z,96549.56
2022-09-16T01:13:15.061Z,96553.06
2022-09-16T01:15:57.474Z,96555.44
2022-09-16T01:18:39.255Z,96560.31
2022-09-16T01:21:22.625Z,96559.41
2022-09-16T01:24:04.467Z,96559.78
2022-09-16T01:26:58.815Z,96560.69
2022-09-16T01:29:57.031Z,96559.88
2022-09-16T01:32:41.730Z,96552.91
2022-09-16T01:35:41.326Z,96561.00
2022-09-16T01:38:37.736Z,96559.91
2022-09-16T01:41:11.511Z,96565.50
2022-09-16T01:43:52.363Z,96567.88
2022-09-16T01:46:35.545Z,96563.84
2022-09-16T01:49:25.365Z,96562.19
2022-09-16T01:52:36.141Z,96575.09
2022-09-16T01:55:08.593Z,96576.13
2022-09-16T01:57:49.040Z,96572.06
2022-09-16T02:00:17.208Z,96572.81
2022-09-16T02:03:11.829Z,96574.72
2022-09-16T02:05:46.600Z,96577.75
2022-09-16T02:08:19.078Z,96572.06
2022-09-16T02:10:54.924Z,96564.72
2022-09-16T02:13:39.083Z,96573.34
2022-09-16T02:16:14.958Z,96575.25
2022-09-16T02:18:46.159Z,96580.22
2022-09-16T02:21:16.598Z,96577.13
2022-09-16T02:23:54.420Z,96582.56
2022-09-16T02:26:28.026Z,96579.91
2022-09-16T02:28:56.811Z,96595.47
2022-09-16T02:31:30.729Z,96588.00
2022-09-16T02:34:07.254Z,96585.53
2022-09-16T02:36:37.951Z,96588.00
2022-09-16T02:39:12.061Z,96591.66
2022-09-16T02:41:42.457Z,96585.59
2022-09-16T02:44:11.038Z,96592.94
2022-09-16T02:46:49.903Z,96591.16
2022-09-16T02:49:34.847Z,96589.97
2022-09-16T02:52:24.342Z,96586.13
2022-09-16T02:55:14.181Z,96593.06
2022-09-16T02:57:42.001Z,96593.50
2022-09-16T03:00:10.476Z,96596.78
2022-09-16T03:02:37.773Z,96574.59
2022-09-16T03:05:06.054Z,96585.31
2022-09-16T03:07:34.246Z,96582.44
2022-09-16T03:10:01.429Z,96590.78
2022-09-16T03:12:34.819Z,96584.88
2022-09-16T03:15:29.348Z,96584.94
2022-09-16T03:18:18.403Z,96581.28
2022-09-16T03:20:51.494Z,96583.94
2022-09-16T03:23:31.034Z,96587.88
2022-09-16T03:26:09.233Z,96582.16
2022-09-16T03:28:45.661Z,96590.03
2022-09-16T03:31:24.779Z,96585.69
2022-09-16T03:33:58.299Z,96595.06
2022-09-16T03:36:33.664Z,96582.00
2022-09-16T03:39:06.344Z,96582.81
2022-09-16T03:41:35.045Z,96576.88
2022-09-16T03:44:04.194Z,96572.91
2022-09-16T03:46:33.467Z,96573.72
2022-09-16T03:49:01.457Z,96572.94
2022-09-16T03:51:31.908Z,96576.19
2022-09-16T03:54:00.371Z,96571.63
2022-09-16T03:56:28.854Z,96569.81
2022-09-16T03:58:56.643Z,96571.59
2022-09-16T04:01:23.471Z,96575.75
2022-09-16T04:03:52.562Z,96573.59
2022-09-16T04:06:20.430Z,96578.91
2022-09-16T04:08:50.903Z,96578.91
2022-09-16T04:11:18.568Z,96576.00
2022-09-16T04:13:45.594Z,96584.41
2022-09-16T04:16:12.724Z,96592.00
2022-09-16T04:18:39.714Z,96584.47
2022-09-16T04:21:06.612Z,96584.28
2022-09-16T04:23:33.592Z,96591.06
2022-09-16T04:26:02.912Z,96600.53
2022-09-16T04:28:32.030Z,96600.91
2022-09-16T04:31:06.433Z,96598.31
2022-09-16T04:33:35.674Z,96597.94
2022-09-16T04:36:09.131Z,96604.13
2022-09-16T04:38:36.974Z,96606.56
2022-09-16T04:41:21.124Z,96610.38
2022-09-16T04:43:52.970Z,96612.06
2022-09-16T04:46:20.315Z,96605.22
2022-09-16T04:48:48.853Z,96601.06
2022-09-16T04:51:16.411Z,96610.78
2022-09-16T04:53:44.392Z,96606.72
2022-09-16T04:56:15.894Z,96609.56
2022-09-16T04:58:45.038Z,96615.31
2022-09-16T05:01:17.928Z,96598.19
2022-09-16T05:03:47.547Z,96607.19
2022-09-16T05:06:20.655Z,96599.47
2022-09-16T05:08:49.340Z,96604.44
2022-09-16T05:11:21.945Z,96607.31
2022-09-16T05:13:48.981Z,96601.38
2022-09-16T05:16:19.034Z,96601.38
2022-09-16T05:18:48.015Z,96580.56
2022-09-16T05:21:20.288Z,96577.06
2022-09-16T05:23:47.942Z,96582.03
2022-09-16T05:26:21.091Z,96590.28
2022-09-16T05:28:48.861Z,96584.00
2022-09-16T05:31:16.979Z,96580.97
2022-09-16T05:33:47.094Z,96579.94
2022-09-16T05:36:16.835Z,96580.94
2022-09-16T05:39:04.578Z,96577.97
2022-09-16T05:41:34.247Z,96582.31
2022-09-16T05:44:01.882Z,96570.75
2022-09-16T05:46:29.310Z,96584.84
2022-09-16T05:48:56.959Z,96587.16
2022-09-16T05:51:24.195Z,96583.00
2022-09-16T05:53:52.461Z,96583.38
2022-09-16T05:56:20.810Z,96579.34
2022-09-16T05:58:48.064Z,96582.19
2022-09-16T06:01:19.481Z,96575.94
2022-09-16T06:03:48.612Z,96577.00
2022-09-16T06:06:28.635Z,96583.72
2022-09-16T06:08:58.223Z,96569.81
2022-09-16T06:11:26.912Z,96572.69
2022-09-16T06:14:02.879Z,96556.66
2022-09-16T06:16:34.073Z,96551.63
2022-09-16T06:19:03.516Z,96548.13
2022-09-16T06:21:30.847Z,96558.75
2022-09-16T06:23:58.509Z,96555.50
2022-09-16T06:26:27.916Z,96551.72
2022-09-16T06:28:55.850Z,96565.81
2022-09-16T06:31:28.394Z,96569.44
2022-09-16T06:33:58.096Z,96564.16
2022-09-16T06:36:32.086Z,96569.47
2022-09-16T06:38:59.265Z,96569.25
2022-09-16T06:41:26.514Z,96569.47
2022-09-16T06:43:53.615Z,96570.53
2022-09-16T06:46:23.827Z,96576.63
2022-09-16T06:48:53.991Z,96571.25
2022-09-16T06:51:23.658Z,96566.22
2022-09-16T06:53:51.623Z,96569.00
2022-09-16T06:56:22.402Z,96570.69
2022-09-16T06:58:53.631Z,96582.84
2022-09-16T07:01:23.635Z,96579.22
2022-09-16T07:03:52.983Z,96592.25
2022-09-16T07:06:26.655Z,96587.84
2022-09-16T07:09:06.287Z,96588.56
2022-09-16T07:11:33.628Z,96580.69
2022-09-16T07:14:02.559Z,96588.53
2022-09-16T07:16:29.609Z,96575.00
2022-09-16T07:19:01.172Z,96580.09
2022-09-16T07:21:30.692Z,96577.50
2022-09-16T07:24:02.234Z,96566.81
2022-09-16T07:26:31.702Z,96572.78
2022-09-16T07:29:03.552Z,96562.81
2022-09-16T07:31:38.262Z,96563.00
2022-09-16T07:34:07.345Z,96569.28
2022-09-16T07:36:38.426Z,96566.84
2022-09-16T07:39:06.884Z,96562.53
2022-09-16T07:41:36.741Z,96564.41
2022-09-16T07:44:05.038Z,96559.03
2022-09-16T07:46:34.931Z,96568.00
2022-09-16T07:49:04.087Z,96571.81
2022-09-16T07:51:31.607Z,96558.78
2022-09-16T07:54:08.937Z,96552.56
2022-09-16T07:56:38.521Z,96549.59
2022-09-16T07:59:07.428Z,96554.19
2022-09-16T08:01:37.038Z,96554.44
2022-09-16T08:04:06.949Z,96550.13
2022-09-16T08:06:38.031Z,96552.00
2022-09-16T08:09:15.600Z,96558.47
2022-09-16T08:11:52.051Z,96550.00
2022-09-16T08:14:19.311Z,96559.22
2022-09-16T08:16:46.855Z,96554.31
2022-09-16T08:19:14.272Z,96558.09
2022-09-16T08:21:41.184Z,96555.91
2022-09-16T08:24:09.889Z,96555.22
2022-09-16T08:26:37.163Z,96544.53
2022-09-16T08:29:08.949Z,96554.38
2022-09-16T08:31:37.596Z,96557.00
2022-09-16T08:34:05.432Z,96547.59
2022-09-16T08:36:35.464Z,96548.16
2022-09-16T08:39:02.634Z,96553.59
2022-09-16T08:41:41.774Z,96541.31
2022-09-16T08:44:14.577Z,96545.25
2022-09-16T08:46:51.756Z,96537.69
2022-09-16T08:50:00.282Z,96539.47
2022-09-16T08:52:36.621Z,96535.59
2022-09-16T08:55:07.365Z,96528.84
2022-09-16T08:57:40.186Z,96528.63
2022-09-16T09:00:16.280Z,96528.06
2022-09-16T09:03:01.871Z,96520.94
2022-09-16T09:06:02.419Z,96515.56
2022-09-16T09:08:35.224Z,96515.16
2022-09-16T09:11:32.543Z,96498.00
2022-09-16T09:14:07.203Z,96498.31
2022-09-16T09:16:46.830Z,96486.38
2022-09-16T09:19:39.848Z,96489.75
2022-09-16T09:22:36.114Z,96502.69
2022-09-16T09:25:23.472Z,96497.75
2022-09-16T09:27:55.864Z,96493.66
2022-09-16T09:30:28.085Z,96482.09
2022-09-16T09:33:44.280Z,96479.88
2022-09-16T09:36:27.762Z,96471.50
2022-09-16T09:39:04.709Z,96470.19
2022-09-16T09:41:39.974Z,96466.22
2022-09-16T09:44:55.259Z,96477.34
2022-09-16T09:47:33.141Z,96466.84
2022-09-16T09:50:12.567Z,96468.63
2022-09-16T09:52:52.806Z,96471.13
2022-09-16T09:55:22.752Z,96464.41
2022-09-16T09:58:14.049Z,96479.19
2022-09-16T10:00:41.674Z,96475.53
2022-09-16T10:03:17.784Z,96466.63
2022-09-16T10:05:47.134Z,96466.34
2022-09-16T10:08:49.336Z,96479.28
2022-09-16T10:11:23.164Z,96467.84
2022-09-16T10:13:53.121Z,96468.06
2022-09-16T10:16:23.177Z,96468.75
2022-09-16T10:19:04.060Z,96471.09
2022-09-16T10:22:12.099Z,96466.03
2022-09-16T10:24:42.422Z,96466.97
2022-09-16T10:27:27.440Z,96464.22
2022-09-16T10:30:16.123Z,96458.69
2022-09-16T10:32:48.261Z,96454.03
2022-09-16T10:35:23.485Z,96460.78
2022-09-16T10:37:54.563Z,96462.19
2022-09-16T10:40:23.653Z,96466.47
2022-09-16T10:42:53.695Z,96470.31
2022-09-16T10:45:29.781Z,96460.91
2022-09-16T10:48:04.875Z,96460.50
2022-09-16T10:50:34.221Z,96459.56
2022-09-16T10:53:00.977Z,96455.44
2022-09-16T10:55:36.730Z,96459.53
2022-09-16T10:58:17.099Z,96460.22
2022-09-16T11:00:57.926Z,96461.69
2022-09-16T11:03:49.834Z,96463.00
2022-09-16T11:06:32.901Z,96453.78
2022-09-16T11:09:24.646Z,96448.19
2022-09-16T11:12:12.022Z,96444.38
2022-09-16T11:15:00.528Z,96441.75
2022-09-16T11:17:45.294Z,96441.75
2022-09-16T11:20:18.273Z,96443.94
2022-09-16T11:22:54.956Z,96446.16
2022-09-16T11:25:47.716Z,96447.56
2022-09-16T11:28:19.235Z,96444.41
2022-09-16T11:31:15.738Z,96443.66
2022-09-16T11:33:49.988Z,96433.81
2022-09-16T11:36:36.715Z,96434.91
2022-09-16T11:39:03.539Z,96431.81
2022-09-16T11:41:33.843Z,96421.72
2022-09-16T11:44:19.548Z,96428.22
2022-09-16T11:46:55.412Z,96412.03
2022-09-16T11:49:25.847Z,96412.31
2022-09-16T11:52:29.810Z,96411.72
2022-09-16T11:55:18.507Z,96418.50
2022-09-16T11:57:53.137Z,96408.34
2022-09-16T12:00:20.649Z,96406.84
2022-09-16T12:03:26.623Z,96415.91
2022-09-16T12:06:05.363Z,96413.09
2022-09-16T12:08:50.354Z,96417.84
2022-09-16T12:11:33.810Z,96413.44
2022-09-16T12:14:15.595Z,96401.63
2022-09-16T12:16:55.194Z,96404.91
2022-09-16T12:19:49.087Z,96400.69
2022-09-16T12:22:23.226Z,96407.78
2022-09-16T12:25:01.016Z,96402.41
2022-09-16T12:28:12.994Z,96414.66
2022-09-16T12:30:46.877Z,96427.03
2022-09-16T12:33:25.725Z,96437.53
2022-09-16T12:35:53.040Z,96449.56
2022-09-16T12:38:21.697Z,96443.69
2022-09-16T12:41:06.908Z,96452.47
2022-09-16T12:44:33.088Z,96453.00
2022-09-16T12:47:26.044Z,96448.50
2022-09-16T12:50:22.492Z,96450.16
2022-09-16T12:53:33.286Z,96474.84
2022-09-16T12:56:14.991Z,96468.34
2022-09-16T12:59:20.593Z,96460.50
2022-09-16T13:01:56.613Z,96494.03
2022-09-16T13:04:34.548Z,96500.69
2022-09-16T13:07:02.560Z,96515.75
2022-09-16T13:09:37.434Z,96516.81
2022-09-16T13:12:36.419Z,96517.03
2022-09-16T13:14:58.325Z,96518.91
2022-09-16T13:17:36.385Z,96524.22
2022-09-16T13:20:27.275Z,96522.56
2022-09-16T13:23:04.345Z,96526.28
2022-09-16T13:25:50.270Z,96524.09
2022-09-16T13:28:41.038Z,96524.59
2022-09-16T13:31:15.627Z,96541.78
2022-09-16T13:34:02.220Z,96535.50
2022-09-16T13:36:32.488Z,96530.81
2022-09-16T13:39:05.681Z,96531.09
2022-09-16T13:41:36.389Z,96525.03
2022-09-16T13:44:37.617Z,96525.69
2022-09-16T13:47:15.876Z,96553.31
2022-09-16T13:50:21.656Z,96537.69
2022-09-16T13:52:49.377Z,96503.66
2022-09-16T13:55:26.928Z,96523.41
2022-09-16T13:58:05.674Z,96518.88
2022-09-16T14:00:49.769Z,96518.13
2022-09-16T14:03:44.595Z,96512.81
2022-09-16T14:06:31.152Z,96509.13
2022-09-16T14:09:09.478Z,96507.63
2022-09-16T14:12:09.388Z,96505.00
2022-09-16T14:14:46.869Z,96496.69
2022-09-16T14:17:28.343Z,96505.09
2022-09-16T14:20:00.623Z,96513.19
2022-09-16T14:22:28.257Z,96494.78
2022-09-16T14:25:06.298Z,96487.44
2022-09-16T14:27:40.291Z,96486.63
2022-09-16T14:30:17.390Z,96474.78
2022-09-16T14:32:46.429Z,96466.03
2022-09-16T14:35:21.592Z,96465.44
2022-09-16T14:37:53.851Z,96468.09
2022-09-16T14:40:25.363Z,96477.28
2022-09-16T14:43:12.667Z,96465.91
2022-09-16T14:45:49.870Z,96467.50
2022-09-16T14:48:19.097Z,96477.72
2022-09-16T14:50:48.580Z,96492.25
2022-09-16T14:53:55.458Z,96493.84
2022-09-16T14:56:29.550Z,96496.97
2022-09-16T14:58:57.802Z,96507.91
2022-09-16T15:01:28.498Z,96522.59
2022-09-16T15:04:17.337Z,96528.38
2022-09-16T15:06:55.156Z,96526.63
2022-09-16T15:09:48.583Z,96535.66
2022-09-16T15:12:24.644Z,96542.53
2022-09-16T15:14:52.157Z,96548.78
2022-09-16T15:17:21.044Z,96532.47
2022-09-16T15:19:56.027Z,96527.09
2022-09-16T15:22:24.252Z,96506.59
2022-09-16T15:24:55.565Z,96504.91
2022-09-16T15:27:29.441Z,96483.09
2022-09-16T15:30:00.250Z,96482.72
2022-09-16T15:32:32.123Z,96485.56
2022-09-16T15:35:20.007Z,96465.44
2022-09-16T15:37:47.390Z,96469.34
2022-09-16T15:40:28.526Z,96466.63
2022-09-16T15:43:28.406Z,96464.19
2022-09-16T15:46:02.225Z,96474.00
2022-09-16T15:48:43.398Z,96478.34
2022-09-16T15:51:40.411Z,96471.72
2022-09-16T15:54:20.055Z,96475.44
2022-09-16T15:56:59.816Z,96465.09
2022-09-16T15:59:43.377Z,96455.28
2022-09-16T16:02:43.186Z,96445.28
2022-09-16T16:05:14.785Z,96441.06
2022-09-16T16:07:51.301Z,96439.88
2022-09-16T16:10:25.969Z,96438.16
2022-09-16T16:12:59.083Z,96438.59
2022-09-16T16:15:38.206Z,96435.75
2022-09-16T16:18:08.599Z,96433.78
2022-09-16T16:20:37.664Z,96441.47
2022-09-16T16:23:04.848Z,96432.72
2022-09-16T16:25:32.789Z,96427.44
2022-09-16T16:27:59.973Z,96426.78
2022-09-16T16:30:27.221Z,96411.16
2022-09-16T16:32:54.421Z,96401.25
2022-09-16T16:35:21.853Z,96392.41
2022-09-16T16:37:49.105Z,96393.56
2022-09-16T16:40:16.707Z,96386.88
2022-09-16T16:42:44.564Z,96377.41
2022-09-16T16:45:13.754Z,96375.66
2022-09-16T16:47:41.769Z,96390.97
2022-09-16T16:50:09.742Z,96380.72
2022-09-16T16:52:37.410Z,96376.38
2022-09-16T16:55:06.205Z,96379.25
2022-09-16T16:57:33.525Z,96394.13
2022-09-16T17:00:01.200Z,96385.38
2022-09-16T17:02:28.265Z,96391.94
2022-09-16T17:04:56.083Z,96390.16
2022-09-16T17:07:26.617Z,96387.72
2022-09-16T17:09:55.496Z,96390.59
2022-09-16T17:12:23.212Z,96396.47
2022-09-16T17:14:50.590Z,96393.44
2022-09-16T17:17:18.468Z,96381.56
2022-09-16T17:19:45.857Z,96372.78
2022-09-16T17:22:14.262Z,96383.00
2022-09-16T17:24:43.029Z,96383.47
2022-09-16T17:27:10.255Z,96394.38
2022-09-16T17:29:40.558Z,96385.81
2022-09-16T17:32:08.870Z,96389.16
2022-09-16T17:34:36.514Z,96384.03
2022-09-16T17:37:05.274Z,96382.97
2022-09-16T17:39:33.148Z,96387.66
2022-09-16T17:42:06.835Z,96382.31
2022-09-16T17:44:40.871Z,96381.50
2022-09-16T17:47:08.242Z,96372.63
2022-09-16T17:49:35.897Z,96374.19
2022-09-16T17:52:03.463Z,96371.38
2022-09-16T17:54:32.247Z,96372.69
2022-09-16T17:57:00.670Z,96378.25
2022-09-16T17:59:28.051Z,96385.00
2022-09-16T18:01:55.666Z,96374.16
2022-09-16T18:04:23.141Z,96386.34
2022-09-16T18:06:51.759Z,96388.50
2022-09-16T18:09:19.669Z,96388.06
2022-09-16T18:11:47.592Z,96392.22
2022-09-16T18:14:18.063Z,96388.09
2022-09-16T18:16:50.939Z,96392.78
2022-09-16T18:19:21.342Z,96401.50
2022-09-16T18:21:48.733Z,96410.72
2022-09-16T18:24:16.623Z,96403.75
2022-09-16T18:26:44.433Z,96411.63
2022-09-16T18:29:13.763Z,96406.31
2022-09-16T18:31:46.239Z,96412.06
2022-09-16T18:34:14.781Z,96406.69
2022-09-16T18:36:43.002Z,96411.63
2022-09-16T18:39:16.053Z,96427.91
2022-09-16T18:41:45.582Z,96423.44
2022-09-16T18:44:20.372Z,96436.47
2022-09-16T18:46:48.116Z,96439.56
2022-09-16T18:49:16.864Z,96431.72
2022-09-16T18:51:50.848Z,96431.56
2022-09-16T18:54:28.679Z,96442.25
2022-09-16T18:57:01.658Z,96427.03
2022-09-16T18:59:31.595Z,96443.88
2022-09-16T19:02:01.440Z,96452.91
2022-09-16T19:04:31.978Z,96454.53
2022-09-16T19:07:08.537Z,96454.13
2022-09-16T19:09:38.494Z,96441.44
2022-09-16T19:12:09.122Z,96445.16
2022-09-16T19:14:37.149Z,96452.53
2022-09-16T19:17:05.233Z,96447.63
2022-09-16T19:19:33.027Z,96442.13
2022-09-16T19:22:06.174Z,96439.44
2022-09-16T19:24:34.691Z,96431.09
2022-09-16T19:27:03.770Z,96439.69
2022-09-16T19:29:33.207Z,96443.19
2022-09-16T19:32:01.834Z,96446.06
2022-09-16T19:34:30.400Z,96440.31
2022-09-16T19:36:58.074Z,96435.38
2022-09-16T19:39:27.461Z,96435.00
2022-09-16T19:41:56.353Z,96439.13
2022-09-16T19:44:26.747Z,96437.84
2022-09-16T19:46:54.860Z,96442.81
2022-09-16T19:49:23.814Z,96432.34
2022-09-16T19:51:54.635Z,96430.13
2022-09-16T19:54:24.555Z,96435.06
2022-09-16T19:56:52.707Z,96435.88
2022-09-16T19:59:21.439Z,96426.66
2022-09-16T20:01:49.874Z,96424.19
2022-09-16T20:04:20.219Z,96428.47
2022-09-16T20:06:48.871Z,96425.63
2022-09-16T20:09:17.614Z,96426.84
2022-09-16T20:11:47.183Z,96426.44
2022-09-16T20:14:19.649Z,96431.38
2022-09-16T20:16:48.506Z,96426.47
2022-09-16T20:19:18.428Z,96432.41
2022-09-16T20:21:46.381Z,96420.53
2022-09-16T20:24:18.990Z,96420.53
2022-09-16T20:26:48.167Z,96428.91
2022-09-16T20:29:18.038Z,96434.25
2022-09-16T20:31:49.139Z,96421.97
2022-09-16T20:34:20.499Z,96429.72
2022-09-16T20:36:49.430Z,96424.84
2022-09-16T20:39:18.540Z,96426.88
2022-09-16T20:41:51.550Z,96414.19
2022-09-16T20:44:18.985Z,96418.47
2022-09-16T20:46:47.253Z,96411.53
2022-09-16T20:49:17.312Z,96407.41
2022-09-16T20:51:45.682Z,96400.69
2022-09-16T20:54:16.399Z,96400.88
2022-09-16T20:56:47.488Z,96415.81
2022-09-16T20:59:17.280Z,96422.38
2022-09-16T21:01:45.559Z,96423.38
2022-09-16T21:04:17.244Z,96420.72
2022-09-16T21:06:45.221Z,96419.06
2022-09-16T21:09:14.769Z,96420.09
2022-09-16T21:11:45.948Z,96416.81
2022-09-16T21:14:16.660Z,96424.41
2022-09-16T21:16:46.128Z,96430.50
2022-09-16T21:19:14.458Z,96436.66
2022-09-16T21:21:48.923Z,96431.75
2022-09-16T21:24:16.927Z,96439.09
2022-09-16T21:26:45.075Z,96441.97
2022-09-16T21:29:15.546Z,96440.31
2022-09-16T21:31:43.782Z,96440.31
2022-09-16T21:34:16.260Z,96439.50
2022-09-16T21:36:44.972Z,96443.19
2022-09-16T21:39:14.098Z,96441.53
2022-09-16T21:41:41.638Z,96446.22
2022-09-16T21:44:09.083Z,96434.38
2022-09-16T21:46:41.877Z,96429.88
2022-09-16T21:49:25.879Z,96446.81
2022-09-16T21:51:55.782Z,96442.34
2022-09-16T21:54:23.468Z,96434.56
2022-09-16T21:56:51.915Z,96431.69
2022-09-16T21:59:22.123Z,96432.91
2022-09-16T22:01:51.353Z,96429.22
2022-09-16T22:04:23.494Z,96428.81
2022-09-16T22:06:52.947Z,96415.34
2022-09-16T22:09:20.004Z,96410.81
2022-09-16T22:11:47.893Z,96422.66
2022-09-16T22:14:16.625Z,96426.16
2022-09-16T22:16:44.480Z,96424.31
2022-09-16T22:19:12.895Z,96430.88
2022-09-16T22:21:43.956Z,96417.97
2022-09-16T22:24:11.841Z,96405.06
2022-09-16T22:26:39.787Z,96414.06
2022-09-16T22:29:09.257Z,96414.69
2022-09-16T22:31:38.479Z,96413.22
2022-09-16T22:34:05.851Z,96409.16
2022-09-16T22:36:35.484Z,96409.13
2022-09-16T22:39:07.682Z,96398.91
2022-09-16T22:41:35.439Z,96402.34
2022-09-16T22:44:02.608Z,96400.53
2022-09-16T22:46:33.493Z,96378.84
2022-09-16T22:49:01.724Z,96386.00
2022-09-16T22:51:29.552Z,96377.22
2022-09-16T22:53:56.826Z,96361.03
2022-09-16T22:56:28.846Z,96368.13
2022-09-16T22:58:59.009Z,96358.06
2022-09-16T23:01:38.741Z,96365.22
2022-09-16T23:04:07.496Z,96352.59
2022-09-16T23:06:36.139Z,96359.75
2022-09-16T23:09:04.833Z,96361.94
2022-09-16T23:11:33.793Z,96358.06
2022-09-16T23:14:01.989Z,96351.31
2022-09-16T23:16:36.251Z,96353.41
2022-09-16T23:19:06.850Z,96346.44
2022-09-16T23:21:34.162Z,96338.66
2022-09-16T23:24:03.601Z,96335.34
2022-09-16T23:26:33.585Z,96320.72
2022-09-16T23:29:03.258Z,96335.34
2022-09-16T23:31:35.888Z,96320.72
2022-09-16T23:34:07.824Z,96323.97
2022-09-16T23:36:37.902Z,96319.06
2022-09-16T23:39:07.228Z,96324.72
2022-09-16T23:41:35.556Z,96328.41
2022-09-16T23:44:03.244Z,96327.69
2022-09-16T23:46:31.514Z,96325.84
2022-09-16T23:48:59.248Z,96326.44
2022-09-16T23:51:28.652Z,96324.78
2022-09-16T23:53:57.601Z,96328.41
2022-09-16T23:56:25.035Z,96315.59
2022-09-16T23:58:53.188Z,96331.28
